sensor_id;sensor_type;location;lat;lon;timestamp;P1;durP1;ratioP1;P2;durP2;ratioP2
25045;SDS011;13044;49.304;12.840;2022-09-25T00:01:11;30.85;;;20.20;;
25045;SDS011;13044;49.304;12.840;2022-09-25T00:03:39;33.67;;;19.20;;
25045;SDS011;13044;49.304;12.840;2022-09-25T00:06:11;30.73;;;20.52;;
25045;SDS011;13044;49.304;12.840;2022-09-25T00:08:41;33.42;;;20.67;;
25045;SDS011;13044;49.304;12.840;2022-09-25T00:11:09;31.13;;;19.42;;
25045;SDS011;13044;49.304;12.840;2022-09-25T00:13:45;34.10;;;21.05;;
25045;SDS011;13044;49.304;12.840;2022-09-25T00:16:17;28.38;;;21.08;;
25045;SDS011;13044;49.304;12.840;2022-09-25T00:18:48;32.25;;;20.55;;
25045;SDS011;13044;49.304;12.840;2022-09-25T00:21:34;28.98;;;19.85;;
25045;SDS011;13044;49.304;12.840;2022-09-25T00:24:03;29.88;;;19.50;;
25045;SDS011;13044;49.304;12.840;2022-09-25T00:26:34;32.03;;;20.75;;
25045;SDS011;13044;49.304;12.840;2022-09-25T00:29:05;31.13;;;20.63;;
25045;SDS011;13044;49.304;12.840;2022-09-25T00:31:33;32.88;;;21.15;;
25045;SDS011;13044;49.304;12.840;2022-09-25T00:34:01;31.55;;;21.38;;
25045;SDS011;13044;49.304;12.840;2022-09-25T00:36:30;26.92;;;20.40;;
25045;SDS011;13044;49.304;12.840;2022-09-25T00:38:58;31.88;;;20.48;;
25045;SDS011;13044;49.304;12.840;2022-09-25T00:41:27;30.65;;;20.85;;
25045;SDS011;13044;49.304;12.840;2022-09-25T00:43:57;30.63;;;20.65;;
25045;SDS011;13044;49.304;12.840;2022-09-25T00:49:16;30.02;;;20.92;;
25045;SDS011;13044;49.304;12.840;2022-09-25T00:54:30;30.40;;;20.35;;
25045;SDS011;13044;49.304;12.840;2022-09-25T00:57:03;31.67;;;21.20;;
25045;SDS011;13044;49.304;12.840;2022-09-25T00:59:35;31.55;;;20.40;;
25045;SDS011;13044;49.304;12.840;2022-09-25T01:02:08;33.03;;;20.23;;
25045;SDS011;13044;49.304;12.840;2022-09-25T01:08:50;33.90;;;21.05;;
25045;SDS011;13044;49.304;12.840;2022-09-25T01:11:17;29.48;;;20.15;;
25045;SDS011;13044;49.304;12.840;2022-09-25T01:13:44;29.50;;;20.35;;
25045;SDS011;13044;49.304;12.840;2022-09-25T01:16:18;30.25;;;21.05;;
25045;SDS011;13044;49.304;12.840;2022-09-25T01:21:40;33.80;;;20.42;;
25045;SDS011;13044;49.304;12.840;2022-09-25T01:35:30;27.48;;;19.58;;
25045;SDS011;13044;49.304;12.840;2022-09-25T01:38:28;31.15;;;20.10;;
25045;SDS011;13044;49.304;12.840;2022-09-25T01:44:11;31.77;;;20.25;;
25045;SDS011;13044;49.304;12.840;2022-09-25T01:46:49;29.17;;;20.88;;
25045;SDS011;13044;49.304;12.840;2022-09-25T01:49:21;26.83;;;19.35;;
25045;SDS011;13044;49.304;12.840;2022-09-25T01:51:58;34.72;;;20.55;;
25045;SDS011;13044;49.304;12.840;2022-09-25T01:59:48;36.45;;;19.95;;
25045;SDS011;13044;49.304;12.840;2022-09-25T02:02:37;29.42;;;19.23;;
25045;SDS011;13044;49.304;12.840;2022-09-25T02:05:22;31.13;;;19.20;;
25045;SDS011;13044;49.304;12.840;2022-09-25T02:08:00;31.63;;;20.00;;
25045;SDS011;13044;49.304;12.840;2022-09-25T02:10:36;31.60;;;20.02;;
25045;SDS011;13044;49.304;12.840;2022-09-25T02:13:13;33.08;;;20.45;;
25045;SDS011;13044;49.304;12.840;2022-09-25T02:15:48;27.48;;;19.40;;
25045;SDS011;13044;49.304;12.840;2022-09-25T02:18:19;28.50;;;18.88;;
25045;SDS011;13044;49.304;12.840;2022-09-25T02:26:40;36.63;;;19.98;;
25045;SDS011;13044;49.304;12.840;2022-09-25T02:29:07;38.00;;;22.27;;
25045;SDS011;13044;49.304;12.840;2022-09-25T02:31:35;37.05;;;20.98;;
25045;SDS011;13044;49.304;12.840;2022-09-25T02:34:14;38.40;;;23.30;;
25045;SDS011;13044;49.304;12.840;2022-09-25T02:36:42;75.20;;;26.02;;
25045;SDS011;13044;49.304;12.840;2022-09-25T02:39:10;44.42;;;23.50;;
25045;SDS011;13044;49.304;12.840;2022-09-25T02:53:54;36.35;;;19.20;;
25045;SDS011;13044;49.304;12.840;2022-09-25T02:56:47;29.85;;;18.67;;
25045;SDS011;13044;49.304;12.840;2022-09-25T02:59:31;38.80;;;18.33;;
25045;SDS011;13044;49.304;12.840;2022-09-25T03:02:04;45.45;;;19.05;;
25045;SDS011;13044;49.304;12.840;2022-09-25T03:04:32;104.15;;;20.38;;
25045;SDS011;13044;49.304;12.840;2022-09-25T03:07:01;84.07;;;20.25;;
25045;SDS011;13044;49.304;12.840;2022-09-25T03:09:29;84.47;;;21.15;;
25045;SDS011;13044;49.304;12.840;2022-09-25T03:12:01;39.57;;;20.10;;
25045;SDS011;13044;49.304;12.840;2022-09-25T03:14:30;40.92;;;19.67;;
25045;SDS011;13044;49.304;12.840;2022-09-25T03:16:59;31.73;;;19.85;;
25045;SDS011;13044;49.304;12.840;2022-09-25T03:19:31;28.55;;;18.27;;
25045;SDS011;13044;49.304;12.840;2022-09-25T03:22:00;29.13;;;18.90;;
25045;SDS011;13044;49.304;12.840;2022-09-25T03:24:28;30.95;;;18.67;;
25045;SDS011;13044;49.304;12.840;2022-09-25T03:26:55;31.23;;;19.15;;
25045;SDS011;13044;49.304;12.840;2022-09-25T03:29:22;32.90;;;20.73;;
25045;SDS011;13044;49.304;12.840;2022-09-25T03:31:49;34.35;;;19.08;;
25045;SDS011;13044;49.304;12.840;2022-09-25T03:34:17;30.75;;;19.25;;
25045;SDS011;13044;49.304;12.840;2022-09-25T03:36:44;30.48;;;17.73;;
25045;SDS011;13044;49.304;12.840;2022-09-25T03:39:14;44.35;;;20.05;;
25045;SDS011;13044;49.304;12.840;2022-09-25T03:41:44;28.17;;;17.10;;
25045;SDS011;13044;49.304;12.840;2022-09-25T03:44:12;28.30;;;16.90;;
25045;SDS011;13044;49.304;12.840;2022-09-25T03:46:39;30.20;;;17.27;;
25045;SDS011;13044;49.304;12.840;2022-09-25T03:49:06;25.10;;;16.02;;
25045;SDS011;13044;49.304;12.840;2022-09-25T03:51:35;28.65;;;16.75;;
25045;SDS011;13044;49.304;12.840;2022-09-25T03:54:03;24.98;;;17.30;;
25045;SDS011;13044;49.304;12.840;2022-09-25T03:56:31;21.73;;;15.52;;
25045;SDS011;13044;49.304;12.840;2022-09-25T03:58:58;30.30;;;16.92;;
25045;SDS011;13044;49.304;12.840;2022-09-25T04:01:25;25.83;;;16.42;;
25045;SDS011;13044;49.304;12.840;2022-09-25T04:03:53;26.00;;;16.58;;
25045;SDS011;13044;49.304;12.840;2022-09-25T04:06:21;31.60;;;18.15;;
25045;SDS011;13044;49.304;12.840;2022-09-25T04:08:51;28.98;;;17.63;;
25045;SDS011;13044;49.304;12.840;2022-09-25T04:11:19;33.72;;;19.35;;
25045;SDS011;13044;49.304;12.840;2022-09-25T04:13:49;31.67;;;18.60;;
25045;SDS011;13044;49.304;12.840;2022-09-25T04:16:16;31.90;;;18.88;;
25045;SDS011;13044;49.304;12.840;2022-09-25T04:18:46;36.45;;;19.05;;
25045;SDS011;13044;49.304;12.840;2022-09-25T04:21:13;35.58;;;17.83;;
25045;SDS011;13044;49.304;12.840;2022-09-25T04:23:40;36.17;;;18.55;;
25045;SDS011;13044;49.304;12.840;2022-09-25T04:26:08;33.50;;;18.75;;
25045;SDS011;13044;49.304;12.840;2022-09-25T04:28:35;35.58;;;19.10;;
25045;SDS011;13044;49.304;12.840;2022-09-25T04:31:02;37.30;;;19.10;;
25045;SDS011;13044;49.304;12.840;2022-09-25T04:33:30;35.60;;;18.42;;
25045;SDS011;13044;49.304;12.840;2022-09-25T04:36:14;35.60;;;19.42;;
25045;SDS011;13044;49.304;12.840;2022-09-25T04:38:42;31.40;;;19.15;;
25045;SDS011;13044;49.304;12.840;2022-09-25T04:41:09;34.45;;;17.85;;
25045;SDS011;13044;49.304;12.840;2022-09-25T04:43:36;32.15;;;18.73;;
25045;SDS011;13044;49.304;12.840;2022-09-25T04:46:08;38.47;;;20.00;;
25045;SDS011;13044;49.304;12.840;2022-09-25T04:48:43;34.47;;;19.60;;
25045;SDS011;13044;49.304;12.840;2022-09-25T04:51:11;35.20;;;19.50;;
25045;SDS011;13044;49.304;12.840;2022-09-25T04:53:38;38.63;;;19.52;;
25045;SDS011;13044;49.304;12.840;2022-09-25T04:56:07;35.55;;;19.75;;
25045;SDS011;13044;49.304;12.840;2022-09-25T04:58:45;58.58;;;20.63;;
25045;SDS011;13044;49.304;12.840;2022-09-25T05:01:15;38.42;;;20.33;;
25045;SDS011;13044;49.304;12.840;2022-09-25T05:03:49;45.72;;;19.67;;
25045;SDS011;13044;49.304;12.840;2022-09-25T05:06:19;45.45;;;21.60;;
25045;SDS011;13044;49.304;12.840;2022-09-25T05:08:47;51.28;;;20.42;;
25045;SDS011;13044;49.304;12.840;2022-09-25T05:11:14;39.25;;;20.80;;
25045;SDS011;13044;49.304;12.840;2022-09-25T05:13:41;47.78;;;22.60;;
25045;SDS011;13044;49.304;12.840;2022-09-25T05:16:12;57.65;;;21.35;;
25045;SDS011;13044;49.304;12.840;2022-09-25T05:18:39;41.13;;;21.13;;
25045;SDS011;13044;49.304;12.840;2022-09-25T05:21:07;39.63;;;21.02;;
25045;SDS011;13044;49.304;12.840;2022-09-25T05:23:33;58.70;;;23.02;;
25045;SDS011;13044;49.304;12.840;2022-09-25T05:26:00;48.83;;;22.00;;
25045;SDS011;13044;49.304;12.840;2022-09-25T05:28:28;47.13;;;21.50;;
25045;SDS011;13044;49.304;12.840;2022-09-25T05:30:57;59.97;;;23.05;;
25045;SDS011;13044;49.304;12.840;2022-09-25T05:33:29;53.47;;;22.52;;
25045;SDS011;13044;49.304;12.840;2022-09-25T05:36:04;67.93;;;29.65;;
25045;SDS011;13044;49.304;12.840;2022-09-25T05:38:33;53.90;;;26.50;;
25045;SDS011;13044;49.304;12.840;2022-09-25T05:41:03;51.25;;;23.80;;
25045;SDS011;13044;49.304;12.840;2022-09-25T05:46:12;45.08;;;23.35;;
25045;SDS011;13044;49.304;12.840;2022-09-25T05:48:41;51.75;;;24.65;;
25045;SDS011;13044;49.304;12.840;2022-09-25T05:51:08;54.33;;;23.73;;
25045;SDS011;13044;49.304;12.840;2022-09-25T05:53:36;48.65;;;20.48;;
25045;SDS011;13044;49.304;12.840;2022-09-25T05:56:03;46.22;;;20.83;;
25045;SDS011;13044;49.304;12.840;2022-09-25T05:58:31;43.15;;;20.60;;
25045;SDS011;13044;49.304;12.840;2022-09-25T06:01:00;40.88;;;21.67;;
25045;SDS011;13044;49.304;12.840;2022-09-25T06:03:30;38.25;;;19.98;;
25045;SDS011;13044;49.304;12.840;2022-09-25T06:05:57;39.53;;;20.60;;
25045;SDS011;13044;49.304;12.840;2022-09-25T06:08:25;36.50;;;20.33;;
25045;SDS011;13044;49.304;12.840;2022-09-25T06:10:56;36.90;;;20.30;;
25045;SDS011;13044;49.304;12.840;2022-09-25T06:13:26;35.95;;;20.05;;
25045;SDS011;13044;49.304;12.840;2022-09-25T06:15:55;32.85;;;19.13;;
25045;SDS011;13044;49.304;12.840;2022-09-25T06:18:23;35.30;;;19.55;;
25045;SDS011;13044;49.304;12.840;2022-09-25T06:20:57;35.30;;;20.15;;
25045;SDS011;13044;49.304;12.840;2022-09-25T06:23:27;35.97;;;19.40;;
25045;SDS011;13044;49.304;12.840;2022-09-25T06:25:59;40.92;;;18.75;;
25045;SDS011;13044;49.304;12.840;2022-09-25T06:28:29;38.28;;;20.52;;
25045;SDS011;13044;49.304;12.840;2022-09-25T06:30:59;43.47;;;20.45;;
25045;SDS011;13044;49.304;12.840;2022-09-25T06:33:28;39.97;;;21.17;;
25045;SDS011;13044;49.304;12.840;2022-09-25T06:35:56;48.15;;;31.52;;
25045;SDS011;13044;49.304;12.840;2022-09-25T06:38:23;51.33;;;22.85;;
25045;SDS011;13044;49.304;12.840;2022-09-25T06:40:51;46.83;;;20.25;;
25045;SDS011;13044;49.304;12.840;2022-09-25T06:43:18;36.17;;;20.17;;
25045;SDS011;13044;49.304;12.840;2022-09-25T06:45:45;40.20;;;21.05;;
25045;SDS011;13044;49.304;12.840;2022-09-25T06:48:14;47.75;;;23.48;;
25045;SDS011;13044;49.304;12.840;2022-09-25T06:50:42;57.58;;;27.55;;
25045;SDS011;13044;49.304;12.840;2022-09-25T06:53:11;36.15;;;22.88;;
25045;SDS011;13044;49.304;12.840;2022-09-25T06:55:40;36.30;;;21.17;;
25045;SDS011;13044;49.304;12.840;2022-09-25T06:58:09;26.65;;;18.20;;
25045;SDS011;13044;49.304;12.840;2022-09-25T07:00:39;29.05;;;19.13;;
25045;SDS011;13044;49.304;12.840;2022-09-25T07:03:07;33.25;;;20.27;;
25045;SDS011;13044;49.304;12.840;2022-09-25T07:05:53;33.92;;;21.45;;
25045;SDS011;13044;49.304;12.840;2022-09-25T07:08:20;26.50;;;18.30;;
25045;SDS011;13044;49.304;12.840;2022-09-25T07:10:47;41.45;;;18.05;;
25045;SDS011;13044;49.304;12.840;2022-09-25T07:13:17;33.22;;;19.35;;
25045;SDS011;13044;49.304;12.840;2022-09-25T07:15:56;28.67;;;17.98;;
25045;SDS011;13044;49.304;12.840;2022-09-25T07:18:28;25.63;;;16.70;;
25045;SDS011;13044;49.304;12.840;2022-09-25T07:21:02;35.40;;;14.75;;
25045;SDS011;13044;49.304;12.840;2022-09-25T07:23:32;25.40;;;15.13;;
25045;SDS011;13044;49.304;12.840;2022-09-25T07:26:04;19.02;;;15.07;;
25045;SDS011;13044;49.304;12.840;2022-09-25T07:28:37;26.23;;;15.20;;
25045;SDS011;13044;49.304;12.840;2022-09-25T07:31:15;22.55;;;16.40;;
25045;SDS011;13044;49.304;12.840;2022-09-25T07:33:48;23.13;;;15.48;;
25045;SDS011;13044;49.304;12.840;2022-09-25T07:36:16;22.73;;;15.18;;
25045;SDS011;13044;49.304;12.840;2022-09-25T07:38:48;28.23;;;17.03;;
25045;SDS011;13044;49.304;12.840;2022-09-25T07:41:17;37.30;;;15.98;;
25045;SDS011;13044;49.304;12.840;2022-09-25T07:43:54;27.00;;;15.88;;
25045;SDS011;13044;49.304;12.840;2022-09-25T07:46:42;23.10;;;16.40;;
25045;SDS011;13044;49.304;12.840;2022-09-25T07:49:11;24.17;;;15.68;;
25045;SDS011;13044;49.304;12.840;2022-09-25T07:51:39;22.83;;;13.40;;
25045;SDS011;13044;49.304;12.840;2022-09-25T07:54:06;27.35;;;13.18;;
25045;SDS011;13044;49.304;12.840;2022-09-25T07:56:34;23.63;;;14.75;;
25045;SDS011;13044;49.304;12.840;2022-09-25T07:59:04;17.20;;;13.18;;
25045;SDS011;13044;49.304;12.840;2022-09-25T08:01:31;19.15;;;13.18;;
25045;SDS011;13044;49.304;12.840;2022-09-25T08:03:58;15.20;;;11.68;;
25045;SDS011;13044;49.304;12.840;2022-09-25T08:06:25;15.85;;;12.55;;
25045;SDS011;13044;49.304;12.840;2022-09-25T08:08:52;15.70;;;11.50;;
25045;SDS011;13044;49.304;12.840;2022-09-25T08:11:18;18.80;;;13.18;;
25045;SDS011;13044;49.304;12.840;2022-09-25T08:13:45;14.68;;;12.05;;
25045;SDS011;13044;49.304;12.840;2022-09-25T08:16:14;14.40;;;11.27;;
25045;SDS011;13044;49.304;12.840;2022-09-25T08:18:44;15.48;;;12.10;;
25045;SDS011;13044;49.304;12.840;2022-09-25T08:21:14;18.98;;;12.68;;
25045;SDS011;13044;49.304;12.840;2022-09-25T08:23:51;17.75;;;12.48;;
25045;SDS011;13044;49.304;12.840;2022-09-25T08:26:20;16.38;;;12.00;;
25045;SDS011;13044;49.304;12.840;2022-09-25T08:28:49;18.05;;;12.80;;
25045;SDS011;13044;49.304;12.840;2022-09-25T08:31:17;14.93;;;11.93;;
25045;SDS011;13044;49.304;12.840;2022-09-25T08:33:45;15.48;;;11.13;;
25045;SDS011;13044;49.304;12.840;2022-09-25T08:36:14;14.82;;;12.07;;
25045;SDS011;13044;49.304;12.840;2022-09-25T08:38:44;17.58;;;12.60;;
25045;SDS011;13044;49.304;12.840;2022-09-25T08:41:29;20.17;;;14.18;;
25045;SDS011;13044;49.304;12.840;2022-09-25T08:44:13;23.65;;;13.57;;
25045;SDS011;13044;49.304;12.840;2022-09-25T08:47:32;23.10;;;13.55;;
25045;SDS011;13044;49.304;12.840;2022-09-25T08:50:20;20.13;;;13.52;;
25045;SDS011;13044;49.304;12.840;2022-09-25T08:52:50;20.25;;;14.27;;
25045;SDS011;13044;49.304;12.840;2022-09-25T08:55:50;16.98;;;13.13;;
25045;SDS011;13044;49.304;12.840;2022-09-25T08:58:38;18.42;;;13.77;;
25045;SDS011;13044;49.304;12.840;2022-09-25T09:01:10;18.63;;;13.63;;
25045;SDS011;13044;49.304;12.840;2022-09-25T09:04:01;23.02;;;13.88;;
25045;SDS011;13044;49.304;12.840;2022-09-25T09:06:48;20.90;;;13.63;;
25045;SDS011;13044;49.304;12.840;2022-09-25T09:10:01;22.23;;;14.25;;
25045;SDS011;13044;49.304;12.840;2022-09-25T09:16:12;25.85;;;15.18;;
25045;SDS011;13044;49.304;12.840;2022-09-25T09:18:48;25.20;;;15.90;;
25045;SDS011;13044;49.304;12.840;2022-09-25T09:29:57;22.15;;;14.20;;
25045;SDS011;13044;49.304;12.840;2022-09-25T09:35:57;22.95;;;15.02;;
25045;SDS011;13044;49.304;12.840;2022-09-25T09:45:37;16.85;;;12.13;;
25045;SDS011;13044;49.304;12.840;2022-09-25T09:48:23;24.90;;;16.92;;
25045;SDS011;13044;49.304;12.840;2022-09-25T09:51:08;19.65;;;13.20;;
25045;SDS011;13044;49.304;12.840;2022-09-25T09:53:45;17.85;;;12.02;;
25045;SDS011;13044;49.304;12.840;2022-09-25T09:56:21;23.05;;;13.38;;
25045;SDS011;13044;49.304;12.840;2022-09-25T09:58:57;20.73;;;12.88;;
25045;SDS011;13044;49.304;12.840;2022-09-25T10:01:34;17.65;;;12.50;;
25045;SDS011;13044;49.304;12.840;2022-09-25T10:04:13;17.60;;;12.32;;
25045;SDS011;13044;49.304;12.840;2022-09-25T10:06:47;18.52;;;12.00;;
25045;SDS011;13044;49.304;12.840;2022-09-25T10:09:26;18.80;;;11.00;;
25045;SDS011;13044;49.304;12.840;2022-09-25T10:12:21;18.27;;;11.32;;
25045;SDS011;13044;49.304;12.840;2022-09-25T10:14:58;15.17;;;10.70;;
25045;SDS011;13044;49.304;12.840;2022-09-25T10:17:30;16.35;;;11.25;;
25045;SDS011;13044;49.304;12.840;2022-09-25T10:20:12;22.98;;;15.05;;
25045;SDS011;13044;49.304;12.840;2022-09-25T10:22:45;18.00;;;11.45;;
25045;SDS011;13044;49.304;12.840;2022-09-25T10:25:12;15.45;;;10.77;;
25045;SDS011;13044;49.304;12.840;2022-09-25T10:27:40;16.25;;;11.18;;
25045;SDS011;13044;49.304;12.840;2022-09-25T10:30:16;16.13;;;11.60;;
25045;SDS011;13044;49.304;12.840;2022-09-25T10:32:56;17.73;;;11.55;;
25045;SDS011;13044;49.304;12.840;2022-09-25T10:38:05;15.40;;;11.02;;
25045;SDS011;13044;49.304;12.840;2022-09-25T10:43:34;23.45;;;14.30;;
25045;SDS011;13044;49.304;12.840;2022-09-25T10:46:11;20.13;;;13.35;;
25045;SDS011;13044;49.304;12.840;2022-09-25T10:48:40;16.45;;;10.43;;
25045;SDS011;13044;49.304;12.840;2022-09-25T10:51:27;18.63;;;13.43;;
25045;SDS011;13044;49.304;12.840;2022-09-25T10:56:35;20.38;;;13.68;;
25045;SDS011;13044;49.304;12.840;2022-09-25T10:59:19;20.77;;;13.02;;
25045;SDS011;13044;49.304;12.840;2022-09-25T11:01:49;22.25;;;13.88;;
25045;SDS011;13044;49.304;12.840;2022-09-25T11:06:57;23.17;;;13.93;;
25045;SDS011;13044;49.304;12.840;2022-09-25T11:09:32;23.45;;;13.73;;
25045;SDS011;13044;49.304;12.840;2022-09-25T11:12:06;23.80;;;13.18;;
25045;SDS011;13044;49.304;12.840;2022-09-25T11:14:46;20.98;;;13.63;;
25045;SDS011;13044;49.304;12.840;2022-09-25T11:28:38;15.32;;;10.63;;
25045;SDS011;13044;49.304;12.840;2022-09-25T11:43:04;17.25;;;10.95;;
25045;SDS011;13044;49.304;12.840;2022-09-25T11:45:50;18.23;;;12.82;;
25045;SDS011;13044;49.304;12.840;2022-09-25T11:48:32;15.80;;;11.07;;
25045;SDS011;13044;49.304;12.840;2022-09-25T11:54:23;14.75;;;10.30;;
25045;SDS011;13044;49.304;12.840;2022-09-25T11:57:09;12.35;;;9.38;;
25045;SDS011;13044;49.304;12.840;2022-09-25T12:11:59;11.93;;;8.98;;
25045;SDS011;13044;49.304;12.840;2022-09-25T12:14:52;12.50;;;9.05;;
25045;SDS011;13044;49.304;12.840;2022-09-25T12:38:04;18.42;;;9.80;;
25045;SDS011;13044;49.304;12.840;2022-09-25T12:43:41;15.65;;;8.35;;
25045;SDS011;13044;49.304;12.840;2022-09-25T12:48:55;11.23;;;7.88;;
25045;SDS011;13044;49.304;12.840;2022-09-25T12:51:37;12.18;;;9.02;;
25045;SDS011;13044;49.304;12.840;2022-09-25T12:54:22;12.07;;;8.65;;
25045;SDS011;13044;49.304;12.840;2022-09-25T12:57:17;13.40;;;9.40;;
25045;SDS011;13044;49.304;12.840;2022-09-25T13:00:44;16.17;;;9.93;;
25045;SDS011;13044;49.304;12.840;2022-09-25T13:03:19;15.25;;;9.93;;
25045;SDS011;13044;49.304;12.840;2022-09-25T13:06:15;15.15;;;9.63;;
25045;SDS011;13044;49.304;12.840;2022-09-25T13:08:56;14.90;;;9.68;;
25045;SDS011;13044;49.304;12.840;2022-09-25T13:11:40;17.45;;;10.27;;
25045;SDS011;13044;49.304;12.840;2022-09-25T13:14:33;14.32;;;9.80;;
25045;SDS011;13044;49.304;12.840;2022-09-25T13:17:08;15.23;;;10.40;;
25045;SDS011;13044;49.304;12.840;2022-09-25T13:19:38;15.43;;;9.57;;
25045;SDS011;13044;49.304;12.840;2022-09-25T13:22:09;15.25;;;9.77;;
25045;SDS011;13044;49.304;12.840;2022-09-25T13:25:37;14.80;;;8.73;;
25045;SDS011;13044;49.304;12.840;2022-09-25T13:27:41;11.68;;;8.95;;
25045;SDS011;13044;49.304;12.840;2022-09-25T13:30:21;12.88;;;9.35;;
25045;SDS011;13044;49.304;12.840;2022-09-25T13:32:55;18.17;;;9.95;;
25045;SDS011;13044;49.304;12.840;2022-09-25T13:38:13;14.30;;;9.77;;
25045;SDS011;13044;49.304;12.840;2022-09-25T13:41:09;14.13;;;8.55;;
25045;SDS011;13044;49.304;12.840;2022-09-25T13:48:52;14.45;;;9.10;;
25045;SDS011;13044;49.304;12.840;2022-09-25T13:53:50;16.67;;;9.80;;
25045;SDS011;13044;49.304;12.840;2022-09-25T14:04:21;14.27;;;8.88;;
25045;SDS011;13044;49.304;12.840;2022-09-25T14:07:11;14.40;;;9.38;;
25045;SDS011;13044;49.304;12.840;2022-09-25T14:09:51;11.95;;;8.50;;
25045;SDS011;13044;49.304;12.840;2022-09-25T14:12:24;20.43;;;12.00;;
25045;SDS011;13044;49.304;12.840;2022-09-25T14:15:06;15.90;;;10.63;;
25045;SDS011;13044;49.304;12.840;2022-09-25T14:17:55;19.05;;;11.52;;
25045;SDS011;13044;49.304;12.840;2022-09-25T14:23:10;16.10;;;10.35;;
25045;SDS011;13044;49.304;12.840;2022-09-25T14:25:38;15.48;;;10.55;;
25045;SDS011;13044;49.304;12.840;2022-09-25T14:28:16;21.50;;;13.77;;
25045;SDS011;13044;49.304;12.840;2022-09-25T14:43:02;14.85;;;10.25;;
25045;SDS011;13044;49.304;12.840;2022-09-25T14:48:18;13.27;;;8.45;;
25045;SDS011;13044;49.304;12.840;2022-09-25T14:50:52;13.05;;;9.52;;
25045;SDS011;13044;49.304;12.840;2022-09-25T14:53:28;14.63;;;9.90;;
25045;SDS011;13044;49.304;12.840;2022-09-25T14:56:05;11.80;;;8.82;;
25045;SDS011;13044;49.304;12.840;2022-09-25T14:58:47;13.65;;;9.85;;
25045;SDS011;13044;49.304;12.840;2022-09-25T15:01:32;12.82;;;8.38;;
25045;SDS011;13044;49.304;12.840;2022-09-25T15:04:02;12.30;;;8.50;;
25045;SDS011;13044;49.304;12.840;2022-09-25T15:06:32;12.40;;;9.02;;
25045;SDS011;13044;49.304;12.840;2022-09-25T15:09:02;11.10;;;8.50;;
25045;SDS011;13044;49.304;12.840;2022-09-25T15:20:19;13.50;;;9.48;;
25045;SDS011;13044;49.304;12.840;2022-09-25T15:22:53;16.23;;;9.88;;
25045;SDS011;13044;49.304;12.840;2022-09-25T15:25:25;15.18;;;9.23;;
25045;SDS011;13044;49.304;12.840;2022-09-25T15:27:58;12.68;;;8.95;;
25045;SDS011;13044;49.304;12.840;2022-09-25T15:30:26;13.57;;;9.38;;
25045;SDS011;13044;49.304;12.840;2022-09-25T15:32:53;14.55;;;9.68;;
25045;SDS011;13044;49.304;12.840;2022-09-25T15:35:26;13.83;;;10.37;;
25045;SDS011;13044;49.304;12.840;2022-09-25T15:38:07;14.65;;;9.73;;
25045;SDS011;13044;49.304;12.840;2022-09-25T15:40:38;15.90;;;9.95;;
25045;SDS011;13044;49.304;12.840;2022-09-25T15:43:13;14.15;;;10.23;;
25045;SDS011;13044;49.304;12.840;2022-09-25T15:45:46;11.98;;;8.93;;
25045;SDS011;13044;49.304;12.840;2022-09-25T15:51:00;14.23;;;9.90;;
25045;SDS011;13044;49.304;12.840;2022-09-25T15:53:31;18.48;;;12.77;;
25045;SDS011;13044;49.304;12.840;2022-09-25T16:01:31;15.85;;;11.02;;
25045;SDS011;13044;49.304;12.840;2022-09-25T16:04:22;13.32;;;9.75;;
25045;SDS011;13044;49.304;12.840;2022-09-25T16:07:31;14.85;;;9.57;;
25045;SDS011;13044;49.304;12.840;2022-09-25T16:20:54;14.52;;;9.90;;
25045;SDS011;13044;49.304;12.840;2022-09-25T16:23:32;17.52;;;10.55;;
25045;SDS011;13044;49.304;12.840;2022-09-25T16:25:59;15.45;;;10.07;;
25045;SDS011;13044;49.304;12.840;2022-09-25T16:28:27;14.65;;;9.80;;
25045;SDS011;13044;49.304;12.840;2022-09-25T16:33:46;14.00;;;9.63;;
25045;SDS011;13044;49.304;12.840;2022-09-25T16:36:16;15.00;;;10.98;;
25045;SDS011;13044;49.304;12.840;2022-09-25T16:41:36;14.15;;;10.27;;
25045;SDS011;13044;49.304;12.840;2022-09-25T16:44:15;14.75;;;9.85;;
25045;SDS011;13044;49.304;12.840;2022-09-25T16:49:17;16.88;;;12.30;;
25045;SDS011;13044;49.304;12.840;2022-09-25T16:51:47;24.35;;;14.00;;
25045;SDS011;13044;49.304;12.840;2022-09-25T16:54:18;23.17;;;14.00;;
25045;SDS011;13044;49.304;12.840;2022-09-25T16:56:57;22.33;;;16.52;;
25045;SDS011;13044;49.304;12.840;2022-09-25T16:59:27;20.45;;;14.68;;
25045;SDS011;13044;49.304;12.840;2022-09-25T17:01:59;27.85;;;20.23;;
25045;SDS011;13044;49.304;12.840;2022-09-25T17:04:31;21.15;;;13.68;;
25045;SDS011;13044;49.304;12.840;2022-09-25T17:07:01;21.80;;;11.50;;
25045;SDS011;13044;49.304;12.840;2022-09-25T17:09:27;20.27;;;13.32;;
25045;SDS011;13044;49.304;12.840;2022-09-25T17:11:57;25.50;;;14.00;;
25045;SDS011;13044;49.304;12.840;2022-09-25T17:14:35;23.88;;;14.50;;
25045;SDS011;13044;49.304;12.840;2022-09-25T17:17:02;33.40;;;20.83;;
25045;SDS011;13044;49.304;12.840;2022-09-25T17:19:29;24.85;;;15.88;;
25045;SDS011;13044;49.304;12.840;2022-09-25T17:21:57;24.77;;;15.60;;
25045;SDS011;13044;49.304;12.840;2022-09-25T17:24:25;32.05;;;16.63;;
25045;SDS011;13044;49.304;12.840;2022-09-25T17:26:52;23.15;;;13.98;;
25045;SDS011;13044;49.304;12.840;2022-09-25T17:29:20;24.73;;;15.93;;
25045;SDS011;13044;49.304;12.840;2022-09-25T17:31:47;23.77;;;16.13;;
25045;SDS011;13044;49.304;12.840;2022-09-25T17:36:50;21.17;;;14.20;;
25045;SDS011;13044;49.304;12.840;2022-09-25T17:39:17;23.77;;;15.05;;
25045;SDS011;13044;49.304;12.840;2022-09-25T17:41:44;37.72;;;20.73;;
25045;SDS011;13044;49.304;12.840;2022-09-25T17:44:14;43.33;;;23.13;;
25045;SDS011;13044;49.304;12.840;2022-09-25T17:46:43;38.70;;;21.52;;
25045;SDS011;13044;49.304;12.840;2022-09-25T17:49:11;36.65;;;21.88;;
25045;SDS011;13044;49.304;12.840;2022-09-25T17:51:38;44.30;;;23.70;;
25045;SDS011;13044;49.304;12.840;2022-09-25T17:54:06;40.20;;;20.40;;
25045;SDS011;13044;49.304;12.840;2022-09-25T17:56:34;48.22;;;26.40;;
25045;SDS011;13044;49.304;12.840;2022-09-25T17:59:02;64.85;;;33.20;;
25045;SDS011;13044;49.304;12.840;2022-09-25T18:01:32;70.65;;;33.38;;
25045;SDS011;13044;49.304;12.840;2022-09-25T18:06:49;88.25;;;39.83;;
25045;SDS011;13044;49.304;12.840;2022-09-25T18:09:23;87.03;;;42.13;;
25045;SDS011;13044;49.304;12.840;2022-09-25T18:11:49;90.25;;;42.88;;
25045;SDS011;13044;49.304;12.840;2022-09-25T18:14:17;82.78;;;41.97;;
25045;SDS011;13044;49.304;12.840;2022-09-25T18:16:44;82.50;;;41.10;;
25045;SDS011;13044;49.304;12.840;2022-09-25T18:19:12;66.47;;;34.20;;
25045;SDS011;13044;49.304;12.840;2022-09-25T18:22:00;59.42;;;28.60;;
25045;SDS011;13044;49.304;12.840;2022-09-25T18:24:42;51.63;;;25.20;;
25045;SDS011;13044;49.304;12.840;2022-09-25T18:27:11;46.33;;;23.05;;
25045;SDS011;13044;49.304;12.840;2022-09-25T18:29:40;38.70;;;23.10;;
25045;SDS011;13044;49.304;12.840;2022-09-25T18:32:07;40.17;;;22.45;;
25045;SDS011;13044;49.304;12.840;2022-09-25T18:34:34;35.95;;;21.33;;